Time;durP1;ratioP1;P1;durP2;ratioP2;P2;SDS_P1;SDS_P2;PMS_P1;PMS_P2;Temp;Humidity;BMP_temperature;BMP_pressure;BME280_temperature;BME280_humidity;BME280_pressure;Samples;Min_cycle;Max_cycle;Signal;HPM_P1;HPM_P2
2022/06/07 00:02:26;;;;;;;4.33;3.40;;;;;;;18.19;73.04;99246.03;5088940;28;20211;-86
2022/06/07 00:04:53;;;;;;;3.53;3.03;;;;;;;18.14;73.52;99243.09;5088728;28;20765;-85
2022/06/07 00:07:20;;;;;;;4.00;3.40;;;;;;;18.12;73.09;99241.63;5088962;28;20213;-85
2022/06/07 00:09:47;;;;;;;3.27;2.97;;;;;;;18.10;72.70;99246.97;5088432;28;20231;-86
2022/06/07 00:12:13;;;;;;;4.97;3.50;;;;;;;18.11;72.70;99243.41;5088959;28;20224;-85
2022/06/07 00:14:39;;;;;;;4.60;3.17;;;;;;;18.06;72.48;99236.13;5088658;28;20235;-87
2022/06/07 00:17:06;;;;;;;4.40;3.30;;;;;;;18.03;72.60;99230.41;5088869;28;20230;-86
2022/06/07 00:19:33;;;;;;;6.47;3.20;;;;;;;18.03;72.71;99235.59;5088632;28;20233;-87
2022/06/07 00:21:59;;;;;;;3.50;3.20;;;;;;;18.02;72.22;99231.41;5088951;28;20802;-85
2022/06/07 00:24:26;;;;;;;4.13;3.10;;;;;;;18.00;72.78;99226.38;5088501;28;20230;-86
2022/06/07 00:26:53;;;;;;;5.23;3.10;;;;;;;17.98;72.44;99217.16;5088717;28;20741;-85
2022/06/07 00:29:20;;;;;;;4.93;3.03;;;;;;;18.01;71.57;99222.03;5088558;28;20322;-85
2022/06/07 00:31:46;;;;;;;5.50;3.50;;;;;;;17.97;71.57;99220.69;5088754;28;20213;-86
2022/06/07 00:34:12;;;;;;;4.57;3.27;;;;;;;17.98;72.28;99217.16;5088282;28;20239;-85
2022/06/07 00:36:40;;;;;;;4.30;3.00;;;;;;;18.00;72.21;99215.22;5088589;28;20216;-86
2022/06/07 00:39:06;;;;;;;4.60;3.40;;;;;;;18.02;72.60;99221.03;5088568;28;20236;-87
2022/06/07 00:41:33;;;;;;;4.07;3.47;;;;;;;18.01;72.74;99222.03;5088328;28;20207;-85
2022/06/07 00:44:23;;;;;;;6.93;3.60;;;;;;;17.98;73.20;99217.16;5088377;28;20296;-85
2022/06/07 00:46:52;;;;;;;3.47;3.17;;;;;;;17.96;74.09;99214.72;5088482;28;20216;-85
2022/06/07 00:49:19;;;;;;;4.47;3.23;;;;;;;17.94;74.67;99210.66;5088110;28;20243;-86
2022/06/07 00:51:46;;;;;;;4.83;3.20;;;;;;;17.95;73.83;99213.09;5088264;28;20757;-85
2022/06/07 00:54:19;;;;;;;4.13;3.50;;;;;;;17.91;74.13;99203.22;5088457;28;20293;-87
2022/06/07 00:56:46;;;;;;;4.43;3.40;;;;;;;17.91;74.17;99203.22;5088393;28;20223;-87
2022/06/07 00:59:12;;;;;;;6.10;3.60;;;;;;;17.85;74.47;99208.03;5090470;28;20242;-85
2022/06/07 01:01:38;;;;;;;4.73;3.20;;;;;;;17.85;75.61;99204.63;5091726;28;20579;-86
2022/06/07 01:04:04;;;;;;;3.97;3.57;;;;;;;17.86;75.70;99209.66;5091805;28;20232;-86
2022/06/07 01:11:59;;;;;;;6.43;3.13;;;;;;;17.81;74.83;99206.72;5091572;28;20205;-87
2022/06/07 01:14:25;;;;;;;3.83;3.40;;;;;;;17.81;74.88;99206.72;5091061;28;20241;-86
2022/06/07 01:16:52;;;;;;;4.63;3.20;;;;;;;17.82;74.91;99197.19;5091438;28;20272;-85
2022/06/07 01:19:18;;;;;;;3.47;3.17;;;;;;;17.83;74.26;99204.81;5091939;28;20272;-87
2022/06/07 01:21:46;;;;;;;4.03;3.23;;;;;;;17.80;74.49;99199.09;5091291;28;20220;-87
2022/06/07 01:24:13;;;;;;;5.43;3.20;;;;;;;17.85;73.79;99197.69;5091257;28;20222;-86
2022/06/07 01:26:40;;;;;;;3.87;3.23;;;;;;;17.88;74.08;99194.78;5091591;28;20240;-86
2022/06/07 01:29:06;;;;;;;4.20;3.13;;;;;;;17.88;73.41;99197.38;5091743;28;20676;-86
2022/06/07 01:31:33;;;;;;;3.50;3.20;;;;;;;17.92;73.04;99186.72;5091440;28;20773;-85
2022/06/07 01:33:59;;;;;;;3.57;3.03;;;;;;;17.92;72.88;99179.78;5090978;28;20347;-86
2022/06/07 01:36:25;;;;;;;6.00;3.07;;;;;;;17.95;72.11;99182.06;5091216;28;20213;-86
2022/06/07 01:44:17;;;;;;;3.40;3.00;;;;;;;18.01;71.97;99180.63;5091303;28;20234;-86
2022/06/07 01:46:43;;;;;;;3.33;3.03;;;;;;;18.00;71.69;99184.16;5091137;28;20203;-87
2022/06/07 01:49:10;;;;;;;3.60;3.30;;;;;;;17.98;71.65;99171.41;5091278;28;20249;-87
2022/06/07 01:51:36;;;;;;;4.00;3.20;;;;;;;17.97;71.49;99171.53;5090984;28;20212;-87
2022/06/07 01:54:03;;;;;;;3.37;2.97;;;;;;;18.00;71.55;99173.81;5090691;28;20254;-87
2022/06/07 01:56:29;;;;;;;4.50;3.17;;;;;;;17.99;72.07;99169.63;5090868;28;20270;-86
2022/06/07 01:58:57;;;;;;;3.30;2.97;;;;;;;18.00;72.15;99179.00;5090680;28;20231;-86
2022/06/07 02:01:23;;;;;;;3.40;2.90;;;;;;;18.01;71.50;99178.84;5090852;28;20607;-87
2022/06/07 02:03:49;;;;;;;3.20;2.83;;;;;;;18.03;70.70;99183.84;5090735;28;20230;-86
2022/06/07 02:06:16;;;;;;;7.00;3.40;;;;;;;18.04;70.51;99180.31;5090801;28;20207;-86
2022/06/07 02:08:42;;;;;;;4.07;2.80;;;;;;;18.05;70.17;99187.91;5090984;28;20220;-86
2022/06/07 02:11:12;;;;;;;4.03;2.80;;;;;;;18.07;69.46;99185.19;5089626;28;20212;-86
2022/06/07 02:13:38;;;;;;;5.53;3.00;;;;;;;18.13;69.50;99189.72;5090554;28;20244;-87
2022/06/07 02:16:05;;;;;;;3.33;2.90;;;;;;;18.14;69.44;99188.75;5090652;28;20217;-87
2022/06/07 02:18:32;;;;;;;3.10;2.80;;;;;;;18.16;68.89;99189.41;5090340;28;20693;-87
2022/06/07 02:21:00;;;;;;;6.07;2.90;;;;;;;18.18;68.94;99190.06;5090452;28;20227;-87
2022/06/07 02:23:26;;;;;;;5.00;2.93;;;;;;;18.21;69.45;99201.84;5090610;28;20662;-86
2022/06/07 02:25:56;;;;;;;6.33;3.07;;;;;;;18.26;69.90;99195.25;5090266;28;20681;-86
2022/06/07 02:28:27;;;;;;;5.57;3.03;;;;;;;18.28;69.64;99190.72;5090294;28;20628;-86
2022/06/07 02:30:55;;;;;;;3.10;2.80;;;;;;;18.29;69.50;99186.34;5090487;28;20220;-86
2022/06/07 02:33:22;;;;;;;4.00;2.97;;;;;;;18.31;69.66;99187.81;5090374;28;20237;-87
2022/06/07 02:35:49;;;;;;;3.93;2.73;;;;;;;18.35;69.87;99180.53;5090254;28;20263;-87
2022/06/07 02:38:16;;;;;;;3.67;2.73;;;;;;;18.37;69.96;99175.22;5090352;28;20226;-86
2022/06/07 02:40:45;;;;;;;4.57;2.70;;;;;;;18.38;69.65;99182.00;5089876;28;20225;-86
2022/06/07 02:43:12;;;;;;;4.17;2.77;;;;;;;18.37;69.28;99185.56;5090404;28;20217;-85
2022/06/07 02:45:39;;;;;;;2.77;2.57;;;;;;;18.36;69.28;99189.94;5090000;28;20239;-86
2022/06/07 02:48:07;;;;;;;4.57;2.93;;;;;;;18.35;68.65;99190.91;5090152;28;20220;-85
2022/06/07 02:50:33;;;;;;;5.07;2.90;;;;;;;18.34;68.31;99191.88;5089891;28;20269;-86
2022/06/07 02:52:59;;;;;;;3.20;2.77;;;;;;;18.33;68.94;99191.06;5090122;28;20212;-86
2022/06/07 02:55:26;;;;;;;2.83;2.53;;;;;;;18.33;68.53;99198.84;5089590;28;20237;-86
2022/06/07 02:57:52;;;;;;;3.53;2.97;;;;;;;18.30;68.05;99196.56;5089916;28;20267;-86
2022/06/07 03:00:19;;;;;;;3.03;2.63;;;;;;;18.33;67.66;99195.44;5089565;28;20236;-86
2022/06/07 03:02:47;;;;;;;3.80;2.87;;;;;;;18.35;67.91;99197.88;5089853;28;20223;-86
2022/06/07 03:05:14;;;;;;;3.77;2.87;;;;;;;18.38;67.97;99202.72;5089727;28;20244;-87
2022/06/07 03:07:41;;;;;;;6.20;3.10;;;;;;;18.39;67.93;99206.94;5089768;28;20228;-87
2022/06/07 03:10:09;;;;;;;5.67;2.63;;;;;;;18.42;68.69;99201.47;5089785;28;20580;-86
2022/06/07 03:12:36;;;;;;;3.93;3.00;;;;;;;18.42;68.22;99193.69;5089812;28;20228;-86
2022/06/07 03:15:03;;;;;;;3.67;3.00;;;;;;;18.45;69.19;99198.53;5089641;28;20779;-86
2022/06/07 03:17:29;;;;;;;3.73;2.80;;;;;;;18.50;68.98;99201.44;5089610;28;20219;-86
2022/06/07 03:19:56;;;;;;;4.40;2.90;;;;;;;18.53;68.72;99201.16;5089571;28;20226;-85
2022/06/07 03:22:23;;;;;;;3.43;2.70;;;;;;;18.59;69.04;99203.09;5089591;28;20213;-86
2022/06/07 03:24:49;;;;;;;3.10;2.80;;;;;;;18.65;69.49;99204.25;5089215;28;20318;-86
2022/06/07 03:27:16;;;;;;;4.30;2.90;;;;;;;18.70;69.79;99201.97;5089517;28;20213;-86
2022/06/07 03:29:42;;;;;;;3.80;3.03;;;;;;;18.72;69.54;99211.19;5089288;28;20248;-87
2022/06/07 03:32:10;;;;;;;4.93;3.07;;;;;;;18.77;68.84;99203.81;5089418;28;20208;-86
2022/06/07 03:34:37;;;;;;;3.67;2.67;;;;;;;18.83;68.33;99204.13;5089097;28;20327;-86
2022/06/07 03:37:04;;;;;;;3.20;2.80;;;;;;;18.86;68.94;99216.75;5089378;28;20214;-86
2022/06/07 03:39:30;;;;;;;3.60;2.70;;;;;;;18.91;68.35;99224.88;5088962;28;20240;-85
2022/06/07 03:41:57;;;;;;;4.97;2.87;;;;;;;18.97;68.07;99225.03;5089230;28;20483;-86
2022/06/07 03:44:23;;;;;;;3.93;2.90;;;;;;;19.04;67.39;99230.38;5089224;28;20630;-86
2022/06/07 03:46:50;;;;;;;3.40;3.10;;;;;;;19.10;69.12;99219.34;5089291;28;20223;-87
2022/06/07 03:49:16;;;;;;;5.40;2.93;;;;;;;19.15;69.47;99224.88;5089044;28;20230;-86
2022/06/07 03:51:42;;;;;;;3.63;2.90;;;;;;;19.23;69.70;99219.69;5089216;28;20231;-86
2022/06/07 03:54:09;;;;;;;4.10;2.80;;;;;;;19.28;68.96;99226.94;5089096;28;20385;-86
2022/06/07 03:56:36;;;;;;;4.10;2.90;;;;;;;19.30;69.29;99224.22;5089321;28;20653;-86
2022/06/07 03:59:02;;;;;;;3.00;2.70;;;;;;;19.40;68.59;99230.03;5088683;28;20231;-86
2022/06/07 04:01:29;;;;;;;3.90;2.90;;;;;;;19.44;69.28;99226.16;5088926;28;20221;-86
2022/06/07 04:03:59;;;;;;;3.60;3.17;;;;;;;19.50;69.23;99228.06;5088939;28;20609;-86
2022/06/07 04:06:28;;;;;;;5.93;4.23;;;;;;;19.60;69.12;99231.28;5088968;28;20214;-84
2022/06/07 04:08:54;;;;;;;6.40;4.93;;;;;;;19.63;70.21;99225.78;5089054;28;20346;-87
2022/06/07 04:11:23;;;;;;;9.60;6.10;;;;;;;19.65;70.07;99229.03;5088791;28;20218;-86
2022/06/07 04:13:51;;;;;;;10.17;6.80;;;;;;;19.71;68.51;99221.59;5088625;28;20287;-86
2022/06/07 04:16:21;;;;;;;10.03;6.03;;;;;;;19.77;67.25;99216.53;5088754;28;20213;-84
2022/06/07 04:18:48;;;;;;;7.80;5.03;;;;;;;19.82;68.29;99229.81;5088581;28;20245;-85
2022/06/07 04:21:15;;;;;;;8.00;4.53;;;;;;;19.90;66.17;99231.59;5088703;28;20227;-85
2022/06/07 04:23:42;;;;;;;5.40;4.23;;;;;;;19.99;67.79;99230.56;5088698;28;20263;-86
2022/06/07 04:26:10;;;;;;;7.20;4.20;;;;;;;20.10;68.03;99237.16;5088513;28;20208;-86
2022/06/07 04:28:37;;;;;;;6.03;3.60;;;;;;;20.35;67.04;99230.09;5088535;28;20226;-85
2022/06/07 04:31:10;;;;;;;4.77;3.40;;;;;;;20.45;67.53;99238.50;5088646;28;20209;-85
2022/06/07 04:33:36;;;;;;;5.47;3.00;;;;;;;20.67;67.75;99228.31;5089915;28;20475;-86
2022/06/07 04:36:02;;;;;;;3.17;2.50;;;;;;;20.92;66.20;99229.78;5092194;28;20213;-86
2022/06/07 04:38:29;;;;;;;3.23;2.70;;;;;;;21.02;63.92;99232.94;5092071;28;20220;-85
2022/06/07 04:40:56;;;;;;;2.53;2.33;;;;;;;21.13;64.37;99228.31;5091897;28;20224;-86
2022/06/07 04:43:22;;;;;;;4.60;2.30;;;;;;;21.12;59.02;99231.88;5092252;28;20213;-85
2022/06/07 04:45:49;;;;;;;4.63;2.40;;;;;;;21.13;56.78;99233.50;5091906;28;20280;-86
2022/06/07 04:48:16;;;;;;;2.53;2.20;;;;;;;21.14;58.60;99232.53;5092199;28;20685;-86
2022/06/07 04:50:42;;;;;;;2.80;2.10;;;;;;;21.16;56.52;99233.97;5091759;28;20243;-86
2022/06/07 04:53:08;;;;;;;2.67;2.40;;;;;;;21.21;58.02;99236.06;5092129;28;20217;-86
2022/06/07 04:55:34;;;;;;;2.47;2.27;;;;;;;21.31;56.27;99236.59;5091406;28;20244;-87
2022/06/07 04:58:00;;;;;;;3.80;2.10;;;;;;;21.42;55.95;99238.00;5091698;28;20219;-87
2022/06/07 05:00:27;;;;;;;4.10;2.33;;;;;;;21.69;57.71;99239.19;5091544;28;20264;-86
2022/06/07 05:02:55;;;;;;;4.23;2.40;;;;;;;21.80;53.83;99232.75;5091967;28;20224;-87
2022/06/07 05:05:21;;;;;;;7.10;3.10;;;;;;;21.77;53.41;99241.72;5091565;28;20738;-87
2022/06/07 05:07:47;;;;;;;3.47;2.70;;;;;;;21.83;57.28;99253.19;5091902;28;20711;-86
2022/06/07 05:10:16;;;;;;;5.50;3.40;;;;;;;21.86;62.58;99245.03;5091467;28;20310;-86
2022/06/07 05:12:42;;;;;;;6.50;2.90;;;;;;;21.92;62.66;99250.31;5091496;28;20335;-86
2022/06/07 05:15:09;;;;;;;3.90;2.93;;;;;;;22.08;64.13;99258.94;5091446;28;20249;-86
2022/06/07 05:17:36;;;;;;;3.53;2.60;;;;;;;22.28;65.46;99254.81;5091613;28;20210;-86
2022/06/07 05:20:03;;;;;;;3.40;2.90;;;;;;;22.36;62.09;99257.31;5091241;28;20724;-86
2022/06/07 05:22:29;;;;;;;3.07;2.70;;;;;;;22.38;62.47;99255.34;5091386;28;20540;-87
2022/06/07 05:24:56;;;;;;;4.55;3.00;;;;;;;22.45;66.03;99259.81;5091434;28;20263;-87
2022/06/07 05:27:24;;;;;;;5.28;2.85;;;;;;;22.45;64.84;99259.81;5091604;28;20616;-86
2022/06/07 05:29:53;;;;;;;11.68;3.20;;;;;;;22.50;64.52;99262.69;5091525;28;20230;-87
2022/06/07 05:32:19;;;;;;;5.78;3.00;;;;;;;22.53;64.13;99259.72;5091515;28;20603;-86
2022/06/07 05:34:45;;;;;;;3.20;2.80;;;;;;;22.61;63.99;99270.03;5091218;28;20237;-87
2022/06/07 05:37:15;;;;;;;4.70;2.75;;;;;;;22.68;64.63;99263.06;5091199;28;20205;-86
2022/06/07 05:39:42;;;;;;;3.95;2.67;;;;;;;22.93;64.87;99263.53;5091293;28;20256;-87
2022/06/07 05:42:09;;;;;;;2.80;2.60;;;;;;;23.27;65.02;99259.41;5091316;28;20213;-86
2022/06/07 05:44:35;;;;;;;5.00;2.40;;;;;;;23.61;61.83;99260.47;5090162;28;20234;-86
2022/06/07 05:47:02;;;;;;;4.38;2.40;;;;;;;23.91;61.28;99266.31;5091010;28;20618;-87
2022/06/07 05:49:29;;;;;;;2.90;2.40;;;;;;;24.15;56.66;99268.44;5091504;28;20234;-85
2022/06/07 05:51:55;;;;;;;3.00;2.55;;;;;;;24.24;57.58;99268.28;5090866;28;20214;-87
2022/06/07 05:54:22;;;;;;;2.95;2.22;;;;;;;23.99;50.40;99279.22;5090680;28;20244;-86
2022/06/07 05:56:48;;;;;;;3.13;2.47;;;;;;;23.89;52.40;99278.78;5091027;28;20214;-86
2022/06/07 05:59:14;;;;;;;3.53;2.45;;;;;;;24.16;54.66;99267.44;5090547;28;20242;-86
2022/06/07 06:01:40;;;;;;;2.78;2.40;;;;;;;24.49;54.82;99279.84;5091164;28;20928;-87
2022/06/07 06:04:07;;;;;;;3.65;2.63;;;;;;;24.44;55.68;99271.81;5090804;28;20241;-87
2022/06/07 06:06:34;;;;;;;6.35;2.90;;;;;;;24.36;56.90;99277.19;5090579;28;20711;-87
2022/06/07 06:11:45;;;;;;;2.78;2.50;;;;;;;24.51;53.51;99283.09;5090883;28;20221;-86
2022/06/07 06:14:11;;;;;;;4.32;2.50;;;;;;;24.59;57.50;99275.06;5090827;28;20279;-86
2022/06/07 06:16:38;;;;;;;2.78;2.47;;;;;;;24.69;54.99;99273.88;5090492;28;20708;-86
2022/06/07 06:19:05;;;;;;;2.75;2.42;;;;;;;24.65;52.83;99277.91;5090686;28;20286;-87
2022/06/07 06:21:35;;;;;;;3.03;2.72;;;;;;;24.60;53.97;99281.91;5090296;28;20206;-86
2022/06/07 06:24:02;;;;;;;2.95;2.65;;;;;;;24.58;56.66;99273.47;5090613;28;20256;-85
2022/06/07 06:26:28;;;;;;;3.45;2.80;;;;;;;24.79;55.60;99269.09;5090552;28;20600;-86
2022/06/07 06:28:55;;;;;;;3.20;2.75;;;;;;;25.05;56.40;99274.34;5090421;28;20237;-86
2022/06/07 06:31:22;;;;;;;4.93;2.78;;;;;;;25.10;53.59;99267.72;5090590;28;20572;-86
2022/06/07 06:33:51;;;;;;;3.35;2.97;;;;;;;25.34;56.23;99266.31;5090220;28;20264;-85
2022/06/07 06:36:20;;;;;;;4.25;2.90;;;;;;;25.56;55.03;99269.53;5090263;28;20217;-87
2022/06/07 06:38:47;;;;;;;3.40;2.67;;;;;;;25.66;56.87;99264.69;5090220;28;20777;-86
2022/06/07 06:41:16;;;;;;;5.45;3.20;;;;;;;25.77;55.87;99266.66;5090550;28;20225;-87
2022/06/07 06:43:43;;;;;;;3.30;2.85;;;;;;;26.05;57.36;99257.78;5090234;28;20271;-86
2022/06/07 06:46:12;;;;;;;8.38;2.97;;;;;;;26.22;51.23;99264.16;5090216;28;20209;-87
2022/06/07 06:48:39;;;;;;;3.97;3.25;;;;;;;26.47;50.27;99266.03;5090292;28;20210;-84
2022/06/07 06:51:10;;;;;;;4.85;2.97;;;;;;;26.30;53.04;99271.78;5089956;28;20253;-87
2022/06/07 06:53:37;;;;;;;4.10;3.25;;;;;;;26.06;51.38;99261.97;5090498;28;20218;-88
2022/06/07 06:56:04;;;;;;;4.25;2.90;;;;;;;26.04;49.36;99277.13;5089747;28;20745;-87
2022/06/07 06:58:31;;;;;;;4.22;3.55;;;;;;;25.69;50.23;99269.53;5089910;28;20308;-87
2022/06/07 07:01:00;;;;;;;4.07;3.63;;;;;;;26.02;50.58;99266.03;5089753;28;20707;-87
2022/06/07 07:03:27;;;;;;;4.28;3.80;;;;;;;26.09;52.14;99269.44;5089877;28;20661;-86
2022/06/07 07:05:55;;;;;;;4.80;3.83;;;;;;;26.05;52.05;99268.25;5089900;28;20210;-84
2022/06/07 07:08:23;;;;;;;5.43;4.13;;;;;;;26.33;53.75;99270.56;5089784;28;20210;-85
2022/06/07 07:10:49;;;;;;;5.35;4.43;;;;;;;26.42;52.87;99279.78;5089535;28;20214;-87
2022/06/07 07:13:15;;;;;;;5.18;4.65;;;;;;;26.71;52.54;99272.41;5089783;28;20656;-87
2022/06/07 07:15:46;;;;;;;5.93;4.40;;;;;;;26.74;52.52;99264.94;5089438;28;20230;-88
2022/06/07 07:18:13;;;;;;;6.22;4.65;;;;;;;27.03;55.67;99262.72;5089794;28;20202;-84
2022/06/07 07:20:40;;;;;;;9.05;4.60;;;;;;;26.49;53.43;99264.03;5089622;28;20233;-87
2022/06/07 07:23:07;;;;;;;5.63;4.60;;;;;;;26.85;53.62;99259.00;5089799;28;20210;-87
2022/06/07 07:25:33;;;;;;;6.68;4.20;;;;;;;27.00;47.16;99260.53;5089338;28;20249;-85
2022/06/07 07:27:59;;;;;;;5.80;4.30;;;;;;;27.22;52.48;99263.59;5089535;28;20268;-88
2022/06/07 07:30:25;;;;;;;6.70;4.43;;;;;;;27.30;50.41;99261.50;5089450;28;20245;-85
2022/06/07 07:32:51;;;;;;;4.82;4.10;;;;;;;27.52;47.30;99259.28;5089635;28;20213;-84
2022/06/07 07:35:18;;;;;;;6.70;4.28;;;;;;;27.49;47.22;99253.69;5089036;28;20234;-88
2022/06/07 07:37:45;;;;;;;5.35;4.03;;;;;;;27.60;47.39;99250.31;5089107;28;20700;-88
2022/06/07 07:40:12;;;;;;;4.57;3.85;;;;;;;27.88;49.91;99247.22;5089174;28;20226;-87
2022/06/07 07:42:38;;;;;;;5.53;4.00;;;;;;;28.07;46.14;99245.41;5089480;28;20209;-85
2022/06/07 07:45:05;;;;;;;5.30;3.88;;;;;;;28.13;48.20;99238.41;5089268;28;20291;-82
2022/06/07 07:47:31;;;;;;;4.97;3.70;;;;;;;28.20;45.26;99233.91;5089087;28;20218;-84
2022/06/07 07:49:58;;;;;;;6.18;2.70;;;;;;;28.28;47.50;99245.94;5088987;28;20229;-86
2022/06/07 07:52:24;;;;;;;3.97;2.50;;;;;;;28.20;45.60;99242.59;5089006;28;20276;-87
2022/06/07 07:54:51;;;;;;;5.35;3.15;;;;;;;28.40;46.11;99233.63;5089052;28;20256;-85
2022/06/07 07:57:17;;;;;;;5.90;2.80;;;;;;;28.18;46.25;99231.47;5089264;28;20599;-86
2022/06/07 07:59:43;;;;;;;3.92;3.47;;;;;;;28.20;48.22;99237.31;5088810;28;20708;-85
2022/06/07 08:02:16;;;;;;;4.70;3.00;;;;;;;28.06;45.23;99233.25;5089046;28;20214;-87
2022/06/07 08:04:42;;;;;;;4.28;3.17;;;;;;;28.03;46.66;99230.28;5088960;28;20642;-87
2022/06/07 08:07:08;;;;;;;5.85;3.30;;;;;;;27.95;49.59;99239.25;5088923;28;20197;-87
2022/06/07 08:09:34;;;;;;;3.50;3.20;;;;;;;27.94;46.23;99224.50;5088079;28;20226;-85
2022/06/07 08:12:05;;;;;;;4.07;3.67;;;;;;;27.79;48.04;99234.59;5088724;28;20210;-87
2022/06/07 08:14:33;;;;;;;3.88;2.92;;;;;;;27.98;45.75;99228.28;5088820;28;20686;-87
2022/06/07 08:16:59;;;;;;;5.57;2.80;;;;;;;27.70;44.58;99224.34;5088909;28;20224;-85
2022/06/07 08:19:25;;;;;;;6.63;3.30;;;;;;;28.24;47.15;99234.25;5088932;28;20708;-85
2022/06/07 08:21:51;;;;;;;3.75;3.35;;;;;;;28.69;47.72;99231.25;5088911;28;20221;-85
2022/06/07 08:24:18;;;;;;;4.25;3.25;;;;;;;28.95;48.89;99220.31;5088606;28;20233;-87
2022/06/07 08:26:46;;;;;;;6.57;3.72;;;;;;;29.17;46.51;99225.03;5088700;28;20639;-88
2022/06/07 08:29:13;;;;;;;4.05;3.65;;;;;;;29.24;45.02;99220.47;5088738;28;20770;-85
2022/06/07 08:31:39;;;;;;;6.80;3.40;;;;;;;29.23;43.02;99221.47;5088660;28;20217;-85
2022/06/07 08:39:43;;;;;;;4.30;3.53;;;;;;;29.15;47.71;99217.38;5088529;28;20259;-84
2022/06/07 08:42:20;;;;;;;4.35;3.33;;;;;;;28.94;44.75;99218.69;5088537;28;20220;-85
2022/06/07 08:44:51;;;;;;;4.35;3.33;;;;;;;28.58;46.16;99215.19;5088371;28;20229;-84
2022/06/07 08:47:23;;;;;;;3.65;3.17;;;;;;;28.42;45.06;99210.56;5088375;28;20210;-88
2022/06/07 08:49:49;;;;;;;3.35;3.00;;;;;;;28.69;47.51;99211.00;5088378;28;20279;-88
2022/06/07 08:52:20;;;;;;;4.45;3.22;;;;;;;29.00;44.98;99212.53;5088410;28;20217;-88
2022/06/07 08:54:46;;;;;;;3.80;3.10;;;;;;;28.55;46.67;99218.28;5088316;28;20399;-87
2022/06/07 08:57:19;;;;;;;4.40;3.50;;;;;;;28.67;44.73;99211.19;5088396;28;20214;-87
2022/06/07 08:59:47;;;;;;;3.88;3.50;;;;;;;28.08;44.91;99210.19;5088256;28;20287;-86
2022/06/07 09:02:25;;;;;;;3.30;3.00;;;;;;;28.15;45.34;99205.63;5088482;28;20305;-88
2022/06/07 09:04:51;;;;;;;4.97;2.97;;;;;;;28.66;43.94;99193.81;5088208;28;20237;-85
2022/06/07 09:07:20;;;;;;;4.50;3.13;;;;;;;29.09;44.14;99192.75;5088111;28;20225;-86
2022/06/07 09:12:36;;;;;;;2.78;2.58;;;;;;;29.38;43.70;99182.31;5088337;28;20251;-84
2022/06/07 09:15:08;;;;;;;5.45;2.90;;;;;;;29.15;44.98;99187.59;5088039;28;20234;-86
2022/06/07 09:17:37;;;;;;;3.20;2.90;;;;;;;29.43;39.23;99179.78;5088135;28;20209;-86
2022/06/07 09:20:07;;;;;;;5.47;2.80;;;;;;;29.10;41.78;99173.28;5090069;28;20232;-87
2022/06/07 09:22:40;;;;;;;3.00;2.70;;;;;;;29.49;41.62;99178.84;5091445;28;20260;-88
2022/06/07 09:25:15;;;;;;;3.15;2.83;;;;;;;29.53;44.50;99172.09;5091408;28;20238;-86
2022/06/07 09:27:45;;;;;;;5.43;3.03;;;;;;;29.30;42.25;99164.25;5091454;28;20221;-85
2022/06/07 09:30:23;;;;;;;4.78;2.90;;;;;;;29.27;42.74;99169.97;5091485;28;20750;-85
2022/06/07 09:32:49;;;;;;;4.00;2.90;;;;;;;29.08;44.35;99172.72;5091482;28;20296;-86
2022/06/07 09:35:20;;;;;;;4.05;2.88;;;;;;;28.37;42.61;99165.72;5091118;28;20291;-87
2022/06/07 09:37:49;;;;;;;3.28;2.97;;;;;;;28.83;43.28;99164.22;5091402;28;20680;-84
2022/06/07 09:40:24;;;;;;;3.35;2.80;;;;;;;29.15;43.58;99158.63;5091301;28;20923;-88
2022/06/07 09:42:54;;;;;;;4.03;2.63;;;;;;;29.37;42.77;99151.72;5091402;28;20216;-85
2022/06/07 09:45:26;;;;;;;3.10;2.80;;;;;;;28.99;40.07;99152.19;5091119;28;20724;-83
2022/06/07 09:47:52;;;;;;;3.03;2.70;;;;;;;28.87;42.98;99149.56;5091268;28;20213;-87
2022/06/07 09:50:22;;;;;;;2.92;2.45;;;;;;;29.00;43.41;99149.34;5091052;28;20234;-85
2022/06/07 09:52:53;;;;;;;2.72;2.53;;;;;;;29.42;42.51;99135.25;5090852;28;20205;-87
2022/06/07 09:55:22;;;;;;;3.67;2.47;;;;;;;29.43;39.62;99148.16;5091122;28;20238;-85
2022/06/07 09:58:03;;;;;;;3.00;2.55;;;;;;;28.75;39.60;99140.88;5091087;28;20218;-88
2022/06/07 10:00:40;;;;;;;3.90;2.95;;;;;;;28.57;42.13;99139.16;5090463;28;20273;-87
2022/06/07 10:03:23;;;;;;;2.80;2.60;;;;;;;28.55;42.07;99141.97;5090887;28;20206;-86
2022/06/07 10:06:03;;;;;;;3.35;2.65;;;;;;;28.51;40.40;99140.84;5090734;28;20245;-85
2022/06/07 10:08:54;;;;;;;2.97;2.67;;;;;;;28.39;39.53;99132.06;5090779;28;20213;-87
2022/06/07 10:11:28;;;;;;;3.83;2.53;;;;;;;28.38;41.29;99130.50;5086439;28;20210;-85
2022/06/07 10:14:12;;;;;;;3.03;2.72;;;;;;;28.17;40.38;99122.09;5090760;28;20226;-87
2022/06/07 10:16:48;;;;;;;6.20;3.10;;;;;;;28.26;41.60;99117.31;5090678;28;20210;-87
2022/06/07 10:19:38;;;;;;;5.53;3.15;;;;;;;28.52;44.34;99120.59;5090497;28;20256;-85
2022/06/07 10:22:20;;;;;;;3.63;2.90;;;;;;;28.73;42.81;99116.59;5090471;28;20214;-85
2022/06/07 10:24:58;;;;;;;2.80;2.60;;;;;;;29.15;42.53;99112.06;5090717;28;20234;-85
2022/06/07 10:27:33;;;;;;;3.17;2.83;;;;;;;29.41;41.37;99107.28;5090398;28;20214;-85
2022/06/07 10:30:19;;;;;;;3.65;2.70;;;;;;;29.41;40.06;99108.09;5090432;28;20260;-87
2022/06/07 10:32:55;;;;;;;3.45;3.05;;;;;;;29.23;40.45;99102.97;5089882;28;20216;-85
2022/06/07 10:35:29;;;;;;;6.32;2.92;;;;;;;29.45;41.79;99093.44;5090458;28;20246;-86
2022/06/07 10:38:11;;;;;;;4.97;3.00;;;;;;;29.06;42.01;99093.19;5090451;28;20583;-87
2022/06/07 10:40:41;;;;;;;3.35;3.00;;;;;;;28.52;40.88;99089.84;5090182;28;20266;-85
2022/06/07 10:43:17;;;;;;;3.20;2.85;;;;;;;28.19;42.06;99085.88;5090229;28;20237;-87
2022/06/07 10:45:44;;;;;;;3.20;2.90;;;;;;;28.04;42.57;99085.47;5090172;28;20225;-88
2022/06/07 10:48:16;;;;;;;3.40;3.10;;;;;;;27.33;43.29;99083.56;5090403;28;20225;-84
2022/06/07 10:50:52;;;;;;;4.55;3.22;;;;;;;27.22;43.96;99088.50;5090213;28;20230;-88
2022/06/07 10:53:25;;;;;;;4.72;3.30;;;;;;;27.35;42.67;99081.53;5090178;28;20866;-87
2022/06/07 10:55:59;;;;;;;3.15;2.85;;;;;;;27.39;43.39;99082.69;5090216;28;20691;-85
2022/06/07 10:58:32;;;;;;;4.30;3.20;;;;;;;27.62;45.34;99077.53;5090139;28;20209;-85
2022/06/07 11:01:06;;;;;;;3.38;2.88;;;;;;;27.63;46.36;99079.13;5089854;28;20213;-87
2022/06/07 11:03:46;;;;;;;3.88;3.20;;;;;;;27.87;44.98;99074.03;5089717;28;20214;-87
2022/06/07 11:09:22;;;;;;;5.15;3.13;;;;;;;28.24;44.97;99081.75;5089885;28;20229;-85
2022/06/07 11:11:50;;;;;;;3.63;3.10;;;;;;;28.37;41.58;99065.78;5089755;28;20214;-86
2022/06/07 11:14:35;;;;;;;3.25;2.95;;;;;;;28.08;43.85;99068.25;5089556;28;20261;-85
2022/06/07 11:17:12;;;;;;;3.88;3.10;;;;;;;28.08;42.01;99067.44;5089777;28;20206;-85
2022/06/07 11:19:39;;;;;;;5.82;3.05;;;;;;;28.02;41.62;99060.47;5089516;28;20750;-85
2022/06/07 11:22:13;;;;;;;4.20;3.08;;;;;;;27.72;42.67;99064.69;5089684;28;20691;-85
2022/06/07 11:24:55;;;;;;;2.95;2.67;;;;;;;26.98;43.58;99060.50;5089566;28;20264;-87
2022/06/07 11:27:23;;;;;;;3.25;2.95;;;;;;;27.24;44.65;99057.59;5089410;28;20206;-86
2022/06/07 11:30:24;;;;;;;3.08;2.78;;;;;;;27.23;45.69;99056.00;5089434;28;20233;-88
2022/06/07 11:32:54;;;;;;;3.30;3.00;;;;;;;27.47;45.83;99061.38;5089548;28;20237;-86
2022/06/07 11:35:44;;;;;;;4.57;2.83;;;;;;;27.47;44.58;99061.38;5089270;28;20269;-85
2022/06/07 11:38:30;;;;;;;4.45;2.90;;;;;;;27.28;44.53;99057.94;5089418;28;20213;-86
2022/06/07 11:44:00;;;;;;;5.40;2.83;;;;;;;27.67;44.36;99051.41;5088476;28;20202;-87
2022/06/07 11:46:37;;;;;;;3.30;2.85;;;;;;;27.64;45.48;99045.81;5082998;28;20585;-86
2022/06/07 11:49:40;;;;;;;3.90;3.05;;;;;;;27.88;45.71;99039.63;5089633;28;20789;-85
2022/06/07 11:52:23;;;;;;;3.90;2.90;;;;;;;27.94;41.47;99040.56;5089178;28;20780;-85
2022/06/07 11:54:54;;;;;;;3.38;3.00;;;;;;;28.07;44.46;99029.84;5089354;28;20329;-86
2022/06/07 11:57:27;;;;;;;6.38;2.88;;;;;;;28.23;42.71;99027.56;5088988;28;20248;-87
2022/06/07 11:59:56;;;;;;;8.85;2.80;;;;;;;28.30;43.87;99030.88;5088997;28;20230;-84
2022/06/07 12:02:27;;;;;;;2.60;2.33;;;;;;;28.30;41.88;99029.06;5088737;28;20210;-88
2022/06/07 12:05:24;;;;;;;4.07;2.90;;;;;;;28.30;41.01;99023.78;5088870;28;20233;-88
2022/06/07 12:07:55;;;;;;;3.67;2.50;;;;;;;28.43;40.08;99025.44;5088809;28;20691;-87
2022/06/07 12:10:33;;;;;;;2.80;2.60;;;;;;;28.42;39.67;99021.19;5089093;28;20245;-85
2022/06/07 12:13:02;;;;;;;3.75;2.40;;;;;;;27.80;39.10;99012.88;5088962;28;20266;-87